Time;durP1;ratioP1;P1;durP2;ratioP2;P2;SDS_P1;SDS_P2;PMS_P1;PMS_P2;Temp;Humidity;BMP_temperature;BMP_pressure;BME280_temperature;BME280_humidity;BME280_pressure;Samples;Min_cycle;Max_cycle;Signal;HPM_P1;HPM_P2
2022/05/23 05:01:26;;;;;;;4.45;1.60;;;17.10;93.60;;;;;;6086992;23;21370;-81
2022/05/23 05:03:55;;;;;;;5.23;1.70;;;17.00;94.40;;;;;;6109516;23;20056;-80
2022/05/23 05:06:22;;;;;;;4.07;1.60;;;17.00;94.70;;;;;;6108784;23;20062;-79
2022/05/23 05:09:06;;;;;;;3.47;1.52;;;17.00;95.30;;;;;;6085525;23;20002;-80
2022/05/23 05:11:32;;;;;;;4.75;1.90;;;16.90;95.90;;;;;;6133450;23;20001;-80
2022/05/23 05:14:30;;;;;;;;;;;16.80;96.40;;;;;;6122467;23;20021;-79
2022/05/23 05:17:01;;;;;;;5.80;1.90;;;16.80;96.50;;;;;;6103851;23;19956;-80
2022/05/23 05:19:27;;;;;;;5.95;1.90;;;16.70;97.40;;;;;;6103570;23;20113;-79
2022/05/23 05:21:59;;;;;;;7.07;1.80;;;16.70;97.70;;;;;;6080895;23;20114;-80
2022/05/23 05:24:44;;;;;;;4.07;1.83;;;16.70;97.90;;;;;;6105159;23;20021;-80
2022/05/23 05:27:33;;;;;;;5.72;1.98;;;16.70;97.10;;;;;;6080587;23;20006;-79
2022/05/23 05:29:59;;;;;;;4.93;2.33;;;16.80;98.00;;;;;;6081030;23;20169;-79
2022/05/23 05:32:40;;;;;;;3.47;2.30;;;16.90;98.10;;;;;;6105531;23;20203;-78
2022/05/23 05:35:14;;;;;;;8.23;2.72;;;16.90;98.30;;;;;;6104905;23;20012;-78
2022/05/23 05:42:02;;;;;;;5.05;1.95;;;17.10;98.30;;;;;;5989496;24;20088;-80
2022/05/23 05:44:43;;;;;;;5.97;2.40;;;17.10;97.50;;;;;;5966848;24;20388;-79
2022/05/23 05:47:22;;;;;;;4.72;2.20;;;17.20;97.40;;;;;;5990221;23;20113;-80
2022/05/23 05:49:54;;;;;;;6.07;2.47;;;17.30;97.00;;;;;;6041035;23;20080;-80
2022/05/23 05:52:31;;;;;;;5.65;2.38;;;17.30;97.00;;;;;;5994062;23;20018;-79
2022/05/23 05:55:02;;;;;;;5.05;2.30;;;17.30;96.90;;;;;;6041044;23;20062;-79
2022/05/23 05:57:38;;;;;;;4.30;2.30;;;17.50;96.90;;;;;;6017013;23;20074;-80
2022/05/23 06:00:35;;;;;;;7.78;2.20;;;17.70;96.80;;;;;;5994315;23;20286;-81
2022/05/23 06:03:01;;;;;;;8.25;2.70;;;17.90;96.60;;;;;;6032600;23;20011;-81
2022/05/23 06:11:23;;;;;;;3.55;2.00;;;18.20;96.10;;;;;;6054655;23;20007;-80
2022/05/23 06:13:56;;;;;;;5.18;2.80;;;18.20;95.40;;;;;;6077282;23;20032;-81
2022/05/23 06:16:37;;;;;;;6.07;2.00;;;18.30;95.60;;;;;;6051705;23;20015;-80
2022/05/23 06:19:06;;;;;;;4.45;2.58;;;18.40;95.40;;;;;;6169029;23;20013;-81
2022/05/23 06:21:42;;;;;;;7.35;2.80;;;18.50;95.40;;;;;;6166622;23;20309;-81
2022/05/23 06:24:08;;;;;;;5.03;2.38;;;18.70;95.10;;;;;;6190445;23;20005;-79
2022/05/23 06:26:46;;;;;;;6.93;2.30;;;18.70;95.10;;;;;;6166762;23;20191;-80
2022/05/23 06:29:24;;;;;;;6.00;2.45;;;18.60;95.00;;;;;;6201920;23;20012;-81
2022/05/23 06:31:50;;;;;;;4.68;2.42;;;18.40;95.50;;;;;;6165134;23;20009;-81
2022/05/23 06:34:20;;;;;;;5.50;2.50;;;18.30;96.00;;;;;;6189814;23;20005;-80
2022/05/23 06:36:51;;;;;;;5.93;2.70;;;18.20;95.70;;;;;;6166129;23;20005;-80
2022/05/23 06:39:26;;;;;;;4.20;2.55;;;18.30;95.40;;;;;;6190681;23;20040;-79
2022/05/23 06:41:52;;;;;;;5.18;2.15;;;18.40;95.60;;;;;;6192824;23;20013;-80
2022/05/23 06:44:52;;;;;;;3.88;2.28;;;18.50;95.60;;;;;;6190842;23;20005;-80
2022/05/23 06:47:37;;;;;;;7.15;2.50;;;18.70;94.90;;;;;;6191748;23;20087;-80
2022/05/23 06:50:21;;;;;;;8.32;2.60;;;18.40;94.40;;;;;;6191852;23;20016;-79
2022/05/23 06:53:21;;;;;;;5.95;2.10;;;18.30;94.60;;;;;;6175519;23;20274;-78
2022/05/23 06:56:07;;;;;;;6.32;2.47;;;18.30;95.00;;;;;;6165622;23;20004;-80
2022/05/23 06:58:35;;;;;;;3.97;2.10;;;18.20;95.00;;;;;;6165218;23;20024;-80
2022/05/23 07:01:11;;;;;;;3.92;2.38;;;18.30;94.40;;;;;;6165385;23;20051;-80
2022/05/23 07:04:20;;;;;;;4.65;2.80;;;18.30;94.70;;;;;;6161568;23;20024;-80
2022/05/23 07:12:45;;;;;;;5.78;2.42;;;18.90;93.60;;;;;;6136632;23;20028;-80
2022/05/23 07:15:13;;;;;;;6.68;2.33;;;19.20;92.90;;;;;;6111641;23;20006;-78
2022/05/23 07:18:07;;;;;;;6.00;2.25;;;19.40;92.00;;;;;;6112323;23;20321;-79
2022/05/23 07:20:56;;;;;;;4.65;2.10;;;19.40;92.30;;;;;;6136892;23;20005;-78
2022/05/23 07:23:37;;;;;;;4.30;1.95;;;19.80;91.70;;;;;;6114088;23;20002;-79
2022/05/23 07:26:23;;;;;;;4.80;2.58;;;20.00;91.10;;;;;;6136079;23;20012;-79
2022/05/23 07:28:54;;;;;;;3.17;1.90;;;19.90;90.90;;;;;;6115626;23;20246;-80
2022/05/23 07:31:26;;;;;;;5.65;2.22;;;20.00;91.00;;;;;;6113100;23;20041;-80
2022/05/23 07:33:52;;;;;;;5.07;2.20;;;20.20;90.60;;;;;;6115563;23;20056;-79
2022/05/23 07:36:20;;;;;;;4.93;2.13;;;20.30;90.20;;;;;;6122331;23;20051;-81
2022/05/23 07:38:48;;;;;;;5.57;1.43;;;20.30;90.10;;;;;;6146524;23;20021;-81
2022/05/23 07:41:47;;;;;;;4.20;1.80;;;20.60;89.60;;;;;;6132333;23;20972;-80
2022/05/23 07:44:17;;;;;;;4.05;1.70;;;20.30;89.70;;;;;;6114199;23;20001;-80
2022/05/23 07:46:44;;;;;;;3.60;1.80;;;20.50;90.10;;;;;;6137867;23;20018;-80
2022/05/23 07:49:12;;;;;;;3.90;2.20;;;20.70;89.30;;;;;;6114850;23;20032;-79
2022/05/23 07:51:45;;;;;;;3.97;1.73;;;20.80;88.60;;;;;;6138269;23;20270;-79
2022/05/23 08:02:43;;;;;;;3.15;1.60;;;20.70;88.00;;;;;;6148952;23;20017;-80
2022/05/23 08:05:16;;;;;;;3.13;1.80;;;20.90;88.30;;;;;;6167814;23;20001;-79
2022/05/23 08:07:45;;;;;;;4.38;1.80;;;21.30;87.20;;;;;;6166980;23;20028;-79
2022/05/23 08:10:12;;;;;;;4.25;1.80;;;21.80;86.10;;;;;;6193860;23;20009;-81
2022/05/23 08:12:41;;;;;;;4.80;1.83;;;22.00;83.90;;;;;;6167092;23;20012;-78
2022/05/23 08:15:12;;;;;;;8.18;2.50;;;22.10;84.20;;;;;;6167031;23;20027;-78
2022/05/23 08:17:42;;;;;;;3.85;1.90;;;22.00;83.90;;;;;;6167150;23;20012;-79
2022/05/23 08:20:23;;;;;;;5.22;2.10;;;22.10;83.50;;;;;;6165997;23;20072;-80
2022/05/23 08:22:54;;;;;;;4.40;1.75;;;21.70;85.00;;;;;;6167610;23;20048;-79
2022/05/23 08:25:28;;;;;;;4.78;2.28;;;21.80;84.60;;;;;;6167252;23;20056;-78
2022/05/23 08:27:56;;;;;;;6.38;2.28;;;21.60;85.80;;;;;;6167982;23;20234;-79
2022/05/23 08:30:23;;;;;;;4.87;2.67;;;21.50;86.00;;;;;;6141031;23;20013;-77
2022/05/23 08:32:58;;;;;;;4.95;2.47;;;21.50;86.70;;;;;;6143411;23;20064;-77
2022/05/23 08:35:24;;;;;;;5.38;2.40;;;21.40;87.10;;;;;;6166679;23;20012;-78
2022/05/23 08:38:05;;;;;;;6.65;2.50;;;21.70;86.90;;;;;;6167280;23;20005;-77
2022/05/23 08:41:16;;;;;;;3.28;2.08;;;21.80;86.50;;;;;;6178071;23;20013;-77
2022/05/23 08:44:10;;;;;;;4.07;2.20;;;21.80;87.20;;;;;;6167161;23;20272;-81
2022/05/23 08:47:06;;;;;;;5.47;2.20;;;21.70;87.40;;;;;;6185038;23;20021;-81
2022/05/23 08:49:56;;;;;;;4.95;2.50;;;21.60;88.70;;;;;;6166581;23;20012;-78
2022/05/23 08:52:42;;;;;;;7.30;3.17;;;21.50;88.60;;;;;;6142266;23;20182;-78
2022/05/23 08:55:31;;;;;;;5.90;2.78;;;21.30;89.70;;;;;;6166825;23;20024;-78
2022/05/23 08:59:00;;;;;;;6.22;2.42;;;21.30;90.10;;;;;;6166540;23;20051;-78
2022/05/23 09:01:41;;;;;;;3.70;2.55;;;21.40;90.30;;;;;;6165472;23;20069;-78
2022/05/23 09:04:27;;;;;;;7.53;3.45;;;21.50;90.40;;;;;;6167135;23;20291;-79
2022/05/23 09:06:56;;;;;;;9.38;4.10;;;21.60;90.40;;;;;;6142368;23;20005;-78
2022/05/23 09:09:23;;;;;;;6.40;3.67;;;21.80;90.40;;;;;;6166469;23;19997;-80
2022/05/23 09:12:01;;;;;;;6.97;2.95;;;21.90;90.30;;;;;;6193153;23;20048;-78
2022/05/23 09:14:27;;;;;;;6.10;3.03;;;22.20;90.10;;;;;;6165183;23;20024;-78
2022/05/23 09:16:56;;;;;;;6.95;3.33;;;22.40;89.20;;;;;;6141372;23;20025;-79
2022/05/23 09:19:55;;;;;;;5.25;3.00;;;22.50;88.90;;;;;;6142507;23;20307;-80
2022/05/23 09:22:43;;;;;;;4.90;2.92;;;22.60;88.70;;;;;;6167085;23;20043;-79
2022/05/23 09:25:11;;;;;;;4.72;2.83;;;22.50;89.20;;;;;;6142357;23;20005;-78
2022/05/23 09:28:05;;;;;;;6.10;2.60;;;22.60;89.30;;;;;;6140961;23;20273;-79
2022/05/23 09:30:35;;;;;;;6.57;2.67;;;22.50;90.00;;;;;;6176514;23;20009;-79
2022/05/23 09:39:26;;;;;;;9.63;3.58;;;22.60;91.60;;;;;;6133840;23;20022;-79
2022/05/23 09:49:15;;;;;;;6.07;2.45;;;23.50;87.80;;;;;;6044163;23;20051;-78
2022/05/23 09:52:14;;;;;;;4.63;2.30;;;23.60;86.70;;;;;;6043012;23;20044;-79
2022/05/23 09:55:02;;;;;;;3.30;2.05;;;24.10;85.70;;;;;;6043392;23;20015;-80
2022/05/23 09:57:50;;;;;;;4.73;2.60;;;24.50;83.50;;;;;;6019174;23;20187;-79
2022/05/23 10:00:17;;;;;;;;;;;24.80;83.20;;;;;;6044425;23;20054;-79
2022/05/23 10:03:13;;;;;;;5.30;2.20;;;25.00;81.80;;;;;;6038664;23;19921;-76
2022/05/23 10:05:42;;;;;;;5.70;2.15;;;25.40;81.00;;;;;;6013658;23;20071;-79
2022/05/23 10:08:13;;;;;;;4.10;1.95;;;25.60;79.80;;;;;;6015478;23;20019;-79
2022/05/23 10:10:58;;;;;;;5.05;2.25;;;25.90;79.10;;;;;;6015265;23;20012;-78
2022/05/23 10:14:00;;;;;;;5.30;2.10;;;25.90;78.70;;;;;;6015479;23;20033;-78
2022/05/23 10:16:49;;;;;;;6.38;2.30;;;25.60;79.80;;;;;;6014666;23;20088;-80
2022/05/23 10:19:31;;;;;;;3.75;2.10;;;25.50;80.40;;;;;;6015690;23;20034;-78
2022/05/23 10:22:18;;;;;;;5.15;2.15;;;25.60;80.30;;;;;;6014832;23;20048;-78
2022/05/23 10:24:55;;;;;;;4.07;2.20;;;25.70;80.40;;;;;;6068839;23;20061;-79
2022/05/23 10:27:49;;;;;;;4.53;2.45;;;25.30;81.20;;;;;;6078987;23;20029;-79
2022/05/23 10:30:18;;;;;;;3.97;1.90;;;25.30;80.90;;;;;;6084779;23;20010;-79
2022/05/23 10:32:52;;;;;;;5.40;2.70;;;25.10;81.10;;;;;;6089164;23;19998;-79
2022/05/23 10:35:34;;;;;;;6.05;2.38;;;24.90;82.10;;;;;;6109046;23;20017;-79
2022/05/23 10:44:00;;;;;;;7.15;2.35;;;25.10;82.10;;;;;;6133109;23;20010;-79
2022/05/23 10:46:28;;;;;;;4.35;2.38;;;24.90;82.40;;;;;;6133051;23;20049;-79
2022/05/23 10:49:20;;;;;;;3.83;2.03;;;25.00;82.70;;;;;;6107660;23;20013;-80
2022/05/23 10:52:05;;;;;;;4.80;1.80;;;25.10;82.30;;;;;;6082966;23;20010;-78
2022/05/23 10:54:40;;;;;;;6.13;2.20;;;25.10;82.00;;;;;;6106251;23;20005;-80
2022/05/23 10:57:24;;;;;;;5.10;2.33;;;25.20;82.70;;;;;;6106806;23;20049;-81
2022/05/23 11:00:12;;;;;;;5.25;1.98;;;24.90;82.90;;;;;;6082730;23;20005;-80
2022/05/23 11:02:55;;;;;;;3.17;1.98;;;24.70;84.10;;;;;;6105734;23;20110;-79
2022/05/23 11:05:32;;;;;;;3.90;2.17;;;24.40;85.10;;;;;;6107413;23;20002;-80
2022/05/23 11:08:16;;;;;;;6.38;2.63;;;24.10;86.30;;;;;;6132712;23;20061;-79
2022/05/23 11:11:04;;;;;;;6.80;2.83;;;23.80;88.30;;;;;;6132035;23;20438;-79
2022/05/23 11:14:13;;;;;;;5.63;2.58;;;23.60;89.80;;;;;;6132487;23;20028;-79
2022/05/23 11:16:54;;;;;;;10.02;3.17;;;23.30;91.80;;;;;;6111002;23;20014;-80
2022/05/23 11:19:51;;;;;;;5.40;2.40;;;22.80;94.00;;;;;;6107478;23;20296;-80
2022/05/23 11:22:19;;;;;;;8.15;3.17;;;22.40;93.30;;;;;;6107550;23;20010;-81
2022/05/23 11:25:01;;;;;;;6.75;2.80;;;22.10;96.00;;;;;;6106418;23;20006;-80
2022/05/23 11:40:48;;;;;;;9.00;4.75;;;19.80;99.90;;;;;;6145324;23;20634;-79
2022/05/23 11:43:40;;;;;;;10.63;5.40;;;19.00;99.90;;;;;;6109966;23;20204;-78
2022/05/23 11:46:53;;;;;;;11.68;5.20;;;18.50;99.90;;;;;;6106319;23;20006;-79
2022/05/23 11:49:00;;;;;;;8.10;4.97;;;18.30;99.90;;;;;;6084859;23;20010;-79
2022/05/23 11:51:40;;;;;;;11.48;4.70;;;18.00;99.90;;;;;;6107229;23;20044;-81
2022/05/23 11:54:15;;;;;;;;;;;17.90;99.90;;;;;;6107693;23;20065;-78
2022/05/23 11:57:01;;;;;;;8.38;3.25;;;17.70;99.90;;;;;;6106344;23;19905;-78
2022/05/23 11:59:27;;;;;;;8.93;3.17;;;17.40;99.90;;;;;;6132513;23;20005;-79
2022/05/23 12:02:12;;;;;;;8.95;3.10;;;17.30;99.90;;;;;;6130679;23;20069;-79
2022/05/23 12:04:43;;;;;;;7.13;2.42;;;17.20;99.90;;;;;;6105637;23;20002;-80
2022/05/23 12:07:42;;;;;;;9.15;3.17;;;17.10;99.90;;;;;;6106376;23;20069;-80
2022/05/23 12:10:24;;;;;;;5.30;2.50;;;17.10;99.90;;;;;;6132357;23;20006;-80
2022/05/23 12:12:51;;;;;;;6.22;2.45;;;17.10;99.90;;;;;;6106116;23;20343;-79
2022/05/23 12:15:42;;;;;;;8.75;2.78;;;17.10;99.90;;;;;;6107483;23;20006;-79
2022/05/23 12:18:29;;;;;;;10.85;2.72;;;17.10;99.90;;;;;;6108662;23;20331;-80
2022/05/23 12:21:33;;;;;;;8.85;3.50;;;17.20;99.90;;;;;;6081608;23;20024;-79
2022/05/23 12:24:23;;;;;;;9.40;3.28;;;17.20;99.90;;;;;;6132641;23;20342;-80
2022/05/23 12:26:59;;;;;;;9.68;3.42;;;17.20;99.90;;;;;;6107602;23;20017;-79
2022/05/23 12:29:28;;;;;;;7.03;2.90;;;17.30;99.90;;;;;;6134289;23;20022;-79
2022/05/23 12:32:22;;;;;;;8.63;3.13;;;17.30;99.90;;;;;;6133193;23;20013;-80
2022/05/23 12:34:49;;;;;;;8.10;3.10;;;17.30;99.90;;;;;;6108644;23;19998;-78
2022/05/23 12:37:38;;;;;;;6.85;3.05;;;17.50;99.90;;;;;;6083490;23;20049;-79
2022/05/23 12:40:13;;;;;;;9.95;3.03;;;17.60;99.90;;;;;;6133351;23;20029;-79
2022/05/23 12:42:57;;;;;;;8.95;3.10;;;17.70;99.90;;;;;;6134410;23;20006;-77
2022/05/23 12:45:40;;;;;;;7.55;2.70;;;17.80;99.90;;;;;;6083641;23;20036;-77
2022/05/23 12:48:18;;;;;;;6.30;2.55;;;17.80;99.90;;;;;;6134303;23;20172;-77
2022/05/23 12:51:12;;;;;;;;;;;17.90;99.90;;;;;;6084973;23;20041;-77
2022/05/23 12:54:13;;;;;;;8.00;2.55;;;18.20;99.90;;;;;;6134007;23;19944;-77
2022/05/23 12:57:20;;;;;;;9.88;2.65;;;18.40;99.90;;;;;;6108228;23;20034;-79
2022/05/23 13:00:16;;;;;;;8.57;2.92;;;18.60;99.90;;;;;;6102741;23;20013;-78
2022/05/23 13:02:51;;;;;;;6.38;2.28;;;18.70;99.90;;;;;;6084208;23;20014;-80
2022/05/23 13:05:29;;;;;;;8.07;2.60;;;19.00;99.90;;;;;;6133030;23;20081;-79
2022/05/23 13:08:19;;;;;;;;;;;19.30;99.90;;;;;;6108490;23;20010;-79
2022/05/23 13:10:52;;;;;;;5.93;2.10;;;19.40;99.90;;;;;;6132301;23;19920;-79
2022/05/23 13:22:43;;;;;;;7.30;2.35;;;20.60;99.90;;;;;;6133594;23;20001;-80
2022/05/23 13:25:12;;;;;;;6.53;1.50;;;21.00;99.90;;;;;;6132530;23;20002;-78
2022/05/23 13:27:50;;;;;;;8.07;2.05;;;21.80;99.90;;;;;;6106217;23;20061;-78
2022/05/23 13:30:52;;;;;;;6.30;2.00;;;23.90;99.40;;;;;;6132465;23;20006;-77
2022/05/23 13:36:59;;;;;;;3.88;1.23;;;28.10;90.00;;;;;;6133344;23;20017;-79
2022/05/23 13:39:26;;;;;;;6.60;1.60;;;30.90;79.80;;;;;;6142673;23;20012;-80
2022/05/23 13:41:51;;;;;;;4.82;1.52;;;31.50;76.10;;;;;;6143108;23;20048;-80
2022/05/23 13:44:40;;;;;;;4.88;1.45;;;31.90;73.50;;;;;;6108738;23;20065;-80
2022/05/23 13:47:21;;;;;;;3.97;1.40;;;33.70;71.50;;;;;;6066840;23;20021;-82
2022/05/23 13:49:57;;;;;;;4.60;1.30;;;35.20;68.70;;;;;;6107513;23;20044;-80
2022/05/23 13:52:35;;;;;;;4.65;1.70;;;35.50;64.40;;;;;;6132652;23;20002;-80
2022/05/23 13:55:30;;;;;;;5.78;1.85;;;34.60;64.10;;;;;;6133804;23;20288;-80
2022/05/23 13:58:43;;;;;;;4.93;1.98;;;34.60;65.70;;;;;;6132192;23;20025;-81
2022/05/23 14:07:53;;;;;;;6.85;1.83;;;36.40;62.60;;;;;;6105641;23;20017;-80
2022/05/23 14:14:28;;;;;;;4.68;1.20;;;36.80;61.90;;;;;;6192700;23;20044;-79
2022/05/23 14:16:59;;;;;;;5.90;1.57;;;37.50;60.10;;;;;;6100922;23;20028;-79
2022/05/23 14:19:41;;;;;;;4.60;1.48;;;38.30;58.10;;;;;;6101496;23;20006;-77
2022/05/23 14:22:25;;;;;;;5.85;1.17;;;37.80;58.70;;;;;;6101485;23;20007;-79
2022/05/23 14:25:21;;;;;;;4.78;1.42;;;39.70;57.30;;;;;;6101990;23;20014;-78
2022/05/23 14:27:53;;;;;;;3.42;1.15;;;38.50;56.20;;;;;;6101581;23;20002;-79
2022/05/23 14:30:25;;;;;;;4.32;1.40;;;39.00;56.80;;;;;;6076710;23;20049;-81
2022/05/23 14:33:18;;;;;;;4.68;1.65;;;39.50;56.30;;;;;;6101866;23;20252;-80
2022/05/23 14:36:09;;;;;;;3.85;1.17;;;37.50;58.10;;;;;;6053815;23;20219;-81
2022/05/23 14:39:10;;;;;;;4.75;1.30;;;38.60;57.70;;;;;;6100616;23;20060;-79
2022/05/23 14:42:27;;;;;;;5.28;1.65;;;39.00;56.60;;;;;;6101235;23;20014;-81
2022/05/23 14:45:17;;;;;;;4.57;1.30;;;39.60;55.50;;;;;;6102016;23;20304;-82
2022/05/23 14:48:17;;;;;;;4.93;1.38;;;40.60;54.70;;;;;;6101299;23;20010;-81
2022/05/23 14:51:14;;;;;;;4.55;1.20;;;39.20;56.40;;;;;;6101749;23;20069;-80
2022/05/23 15:00:39;;;;;;;5.70;1.90;;;35.60;57.60;;;;;;6196449;23;20001;-81
2022/05/23 15:03:26;;;;;;;5.75;1.52;;;33.70;61.20;;;;;;6163555;23;20049;-79
2022/05/23 15:05:55;;;;;;;4.68;1.40;;;31.70;65.30;;;;;;6166307;23;20098;-78
2022/05/23 15:08:24;;;;;;;7.70;2.13;;;31.30;66.70;;;;;;6138694;23;20021;-78
2022/05/23 15:10:54;;;;;;;5.45;1.85;;;30.40;68.60;;;;;;6163458;23;20287;-79
2022/05/23 15:13:57;;;;;;;6.18;1.77;;;29.90;70.80;;;;;;6163957;23;20057;-79
2022/05/23 15:16:29;;;;;;;5.70;1.42;;;29.90;71.30;;;;;;6136186;23;20013;-79
2022/05/23 15:19:01;;;;;;;7.00;1.65;;;29.40;71.60;;;;;;6162175;23;20008;-78
2022/05/23 15:27:57;;;;;;;6.50;1.65;;;27.70;74.70;;;;;;6135173;23;20341;-79
2022/05/23 15:30:25;;;;;;;4.80;1.90;;;27.40;76.20;;;;;;6165281;23;20223;-79
2022/05/23 15:32:52;;;;;;;5.75;1.80;;;27.10;78.00;;;;;;6192759;23;20023;-79
2022/05/23 15:35:20;;;;;;;6.35;2.05;;;26.70;77.80;;;;;;6192189;23;20023;-80
2022/05/23 15:37:46;;;;;;;5.55;1.92;;;26.30;78.80;;;;;;6166375;23;20013;-80
2022/05/23 15:40:14;;;;;;;7.38;2.40;;;26.30;80.20;;;;;;6166304;23;20024;-80
2022/05/23 15:42:41;;;;;;;4.28;2.08;;;26.10;79.90;;;;;;6141700;23;20012;-79
2022/05/23 15:45:15;;;;;;;5.77;2.10;;;25.90;80.60;;;;;;6191525;23;20009;-80
2022/05/23 15:47:41;;;;;;;7.82;2.55;;;25.70;81.10;;;;;;6165812;23;20488;-80
2022/05/23 15:50:09;;;;;;;6.55;1.80;;;25.40;81.90;;;;;;6168598;23;20384;-79
2022/05/23 15:52:35;;;;;;;8.80;1.92;;;25.30;83.00;;;;;;6168199;23;20013;-79
2022/05/23 15:55:02;;;;;;;6.50;2.35;;;25.00;83.50;;;;;;6194528;23;20005;-78
2022/05/23 15:57:37;;;;;;;8.75;2.00;;;24.80;83.70;;;;;;6167917;23;20012;-81
2022/05/23 16:00:13;;;;;;;5.88;2.00;;;24.60;85.50;;;;;;6142628;23;20005;-82
2022/05/23 16:02:41;;;;;;;7.00;1.90;;;24.60;86.00;;;;;;6191221;23;20331;-80
2022/05/23 16:05:18;;;;;;;;;;;;;;;;;;;;;
2022/05/23 16:07:44;;;;;;;9.50;2.20;;;24.40;86.20;;;;;;6167588;23;20029;-80
2022/05/23 16:10:11;;;;;;;8.93;2.33;;;24.30;85.90;;;;;;6194017;23;20016;-81
2022/05/23 16:12:40;;;;;;;6.78;2.40;;;24.20;86.30;;;;;;6166965;23;20019;-80
2022/05/23 16:15:22;;;;;;;;;;;;;;;;;;;;;
2022/05/23 16:17:57;;;;;;;8.07;2.33;;;24.00;87.50;;;;;;6167724;23;20009;-79
2022/05/23 16:20:24;;;;;;;4.88;1.95;;;23.80;88.20;;;;;;6166668;23;20001;-80
2022/05/23 16:22:50;;;;;;;8.05;2.05;;;23.70;89.50;;;;;;6193719;23;20246;-81
2022/05/23 16:25:16;;;;;;;8.18;2.10;;;23.60;90.20;;;;;;6193754;23;20047;-82
2022/05/23 16:27:44;;;;;;;7.82;2.58;;;23.40;90.40;;;;;;6166502;23;20013;-80
2022/05/23 16:30:12;;;;;;;6.37;2.27;;;23.30;91.10;;;;;;6166757;23;20005;-79
2022/05/23 16:38:06;;;;;;;7.35;2.22;;;22.90;91.00;;;;;;6194012;23;20051;-81
2022/05/23 16:40:32;;;;;;;7.38;2.72;;;22.70;91.00;;;;;;6191698;23;20273;-80
2022/05/23 16:42:58;;;;;;;8.88;2.50;;;22.40;91.50;;;;;;6142666;23;20028;-80
2022/05/23 16:57:55;;;;;;;9.07;2.58;;;21.80;92.60;;;;;;6175904;23;20020;-81
2022/05/23 17:00:38;;;;;;;6.53;2.60;;;21.60;92.90;;;;;;6192776;23;20066;-80
2022/05/23 17:03:12;;;;;;;6.38;2.22;;;21.50;93.20;;;;;;6137626;23;20006;-81
2022/05/23 17:05:38;;;;;;;6.38;2.20;;;21.40;93.40;;;;;;6162935;23;20002;-80
2022/05/23 17:08:04;;;;;;;8.95;2.40;;;21.20;93.90;;;;;;6137401;23;20017;-81
2022/05/23 17:10:30;;;;;;;5.22;2.63;;;21.20;93.90;;;;;;6162873;23;20012;-80
2022/05/23 17:12:56;;;;;;;7.43;2.13;;;21.00;94.10;;;;;;6113372;23;20005;-79
2022/05/23 17:15:24;;;;;;;5.45;2.50;;;20.90;94.20;;;;;;6138394;23;20306;-83
2022/05/23 17:17:50;;;;;;;10.25;2.45;;;20.80;94.30;;;;;;6162295;23;20025;-83
2022/05/23 17:20:17;;;;;;;6.50;2.33;;;20.80;94.70;;;;;;6111949;23;20012;-82
2022/05/23 17:22:55;;;;;;;6.70;2.50;;;20.70;94.60;;;;;;6162551;23;20013;-82
2022/05/23 17:25:23;;;;;;;9.93;2.72;;;20.60;94.90;;;;;;6154704;23;20029;-82
2022/05/23 17:27:58;;;;;;;9.48;3.03;;;20.60;95.10;;;;;;6136750;23;20240;-82
2022/05/23 17:30:24;;;;;;;9.00;2.10;;;20.50;95.20;;;;;;6147408;23;20021;-79
2022/05/23 17:32:50;;;;;;;7.20;2.20;;;20.50;95.10;;;;;;6162159;23;20012;-80
2022/05/23 17:35:17;;;;;;;6.18;1.90;;;20.50;95.00;;;;;;6137129;23;20016;-79
2022/05/23 17:37:44;;;;;;;5.20;2.03;;;20.60;94.70;;;;;;6136448;23;20061;-80
2022/05/23 17:40:14;;;;;;;5.30;1.77;;;20.60;94.50;;;;;;6163327;23;20275;-81
2022/05/23 17:42:41;;;;;;;5.38;2.00;;;20.70;94.10;;;;;;6162539;23;20021;-80
2022/05/23 17:45:09;;;;;;;5.38;1.90;;;20.70;94.00;;;;;;6162364;23;20053;-80
2022/05/23 17:47:35;;;;;;;5.30;1.80;;;20.80;93.80;;;;;;6162495;23;20220;-79
2022/05/23 17:50:01;;;;;;;8.10;1.90;;;20.80;93.70;;;;;;6163083;23;20004;-79
2022/05/23 17:52:28;;;;;;;6.70;1.95;;;20.90;93.50;;;;;;6161156;23;20065;-81
2022/05/23 17:54:55;;;;;;;6.70;2.28;;;21.10;93.20;;;;;;6162696;23;20028;-81
2022/05/23 17:57:22;;;;;;;5.43;1.77;;;21.10;93.00;;;;;;6131127;23;20177;-80
2022/05/23 17:59:51;;;;;;;6.75;2.22;;;21.10;92.90;;;;;;6106736;23;20014;-80
2022/05/23 18:02:18;;;;;;;8.77;2.08;;;21.10;92.80;;;;;;6133331;23;20244;-81
2022/05/23 18:04:44;;;;;;;5.28;2.17;;;21.10;92.80;;;;;;6107221;23;20013;-80
2022/05/23 18:07:10;;;;;;;4.97;1.73;;;21.00;92.70;;;;;;6133393;23;20102;-79
2022/05/23 18:09:55;;;;;;;6.70;2.08;;;21.00;92.60;;;;;;6132294;23;20002;-80
2022/05/23 18:12:46;;;;;;;6.32;2.00;;;21.00;92.60;;;;;;6111691;23;20052;-79
2022/05/23 18:21:14;;;;;;;8.88;2.15;;;21.10;92.20;;;;;;6133071;23;20009;-80
2022/05/23 18:23:40;;;;;;;5.20;2.22;;;21.10;92.30;;;;;;6106561;23;20228;-79
2022/05/23 18:26:08;;;;;;;7.75;2.13;;;21.10;92.30;;;;;;6107164;23;19990;-81
2022/05/23 18:28:39;;;;;;;4.68;1.63;;;21.10;92.30;;;;;;6083630;23;20018;-79
2022/05/23 18:31:29;;;;;;;5.65;2.50;;;21.10;92.30;;;;;;6082066;23;20065;-79
2022/05/23 18:33:55;;;;;;;8.63;2.22;;;21.00;92.40;;;;;;6083335;23;20006;-81
2022/05/23 18:36:21;;;;;;;7.10;2.08;;;21.00;92.50;;;;;;6107196;23;20029;-82
2022/05/23 18:38:54;;;;;;;7.15;2.30;;;20.90;92.70;;;;;;6133263;23;20184;-80
2022/05/23 18:41:22;;;;;;;7.95;2.10;;;20.80;92.60;;;;;;6106957;23;20038;-81
2022/05/23 18:43:49;;;;;;;8.25;1.85;;;20.90;92.30;;;;;;6132372;23;20010;-81
2022/05/23 18:46:14;;;;;;;6.80;2.20;;;20.90;92.20;;;;;;6106588;23;20108;-81
2022/05/23 18:52:20;;;;;;;7.45;1.90;;;21.00;90.80;;;;;;6133001;23;20012;-81
2022/05/23 18:54:47;;;;;;;4.15;1.60;;;21.10;90.10;;;;;;6132198;23;20053;-79
2022/05/23 18:57:29;;;;;;;6.28;1.70;;;21.10;89.70;;;;;;6083462;23;20013;-80
2022/05/23 19:00:00;;;;;;;5.55;1.38;;;21.10;88.90;;;;;;6132473;23;20002;-80
2022/05/23 19:02:59;;;;;;;4.95;1.63;;;21.30;87.30;;;;;;6105210;23;20292;-80
2022/05/23 19:05:24;;;;;;;6.55;1.63;;;21.30;86.60;;;;;;6130946;23;20228;-81
2022/05/23 19:08:37;;;;;;;3.65;1.30;;;21.30;85.80;;;;;;6132956;23;20010;-80
2022/05/23 19:11:03;;;;;;;5.00;1.40;;;21.30;86.10;;;;;;6106322;23;20001;-80
2022/05/23 19:13:29;;;;;;;2.97;1.10;;;21.20;85.60;;;;;;6083138;23;20236;-81
2022/05/23 19:15:55;;;;;;;6.30;1.08;;;21.20;86.10;;;;;;6142674;23;20025;-80
2022/05/23 19:18:20;;;;;;;6.20;2.17;;;21.10;85.60;;;;;;6162454;23;20508;-81
2022/05/23 19:20:46;;;;;;;2.90;1.02;;;21.10;85.90;;;;;;6162140;23;20311;-80
2022/05/23 19:23:12;;;;;;;6.13;1.30;;;21.10;86.00;;;;;;6136998;23;20183;-82
2022/05/23 19:25:39;;;;;;;4.47;1.42;;;21.00;86.10;;;;;;6164268;23;20008;-82
2022/05/23 19:28:30;;;;;;;4.85;1.50;;;21.00;86.20;;;;;;6139198;23;19997;-80
2022/05/23 19:30:56;;;;;;;5.70;1.40;;;20.90;86.60;;;;;;6164969;23;20011;-82
2022/05/23 19:33:23;;;;;;;4.32;1.30;;;20.80;87.50;;;;;;6140023;23;19998;-81
2022/05/23 19:35:50;;;;;;;3.63;1.35;;;20.80;87.00;;;;;;6170413;23;20001;-80
2022/05/23 19:38:28;;;;;;;5.40;1.40;;;20.80;87.30;;;;;;6169376;23;20295;-81
2022/05/23 19:40:54;;;;;;;2.95;1.20;;;20.80;87.40;;;;;;6164888;23;20001;-81
2022/05/23 19:43:20;;;;;;;3.40;1.15;;;20.70;87.70;;;;;;6164194;23;20000;-82
2022/05/23 19:45:46;;;;;;;4.85;1.42;;;20.60;88.20;;;;;;6163111;23;20057;-82
2022/05/23 19:48:20;;;;;;;6.25;1.20;;;20.50;88.30;;;;;;6138316;23;20013;-82
2022/05/23 19:50:46;;;;;;;3.40;1.08;;;20.50;88.80;;;;;;6163118;23;20005;-80
2022/05/23 19:53:12;;;;;;;5.28;1.38;;;20.50;88.90;;;;;;6163967;23;20006;-81
2022/05/23 19:55:44;;;;;;;4.20;1.35;;;20.50;89.10;;;;;;6163627;23;20037;-80
2022/05/23 20:08:10;;;;;;;6.55;2.05;;;20.40;90.10;;;;;;6198170;23;20059;-82
2022/05/23 20:10:37;;;;;;;6.28;1.70;;;20.50;90.10;;;;;;6196697;23;20083;-81
2022/05/23 20:13:03;;;;;;;6.25;1.40;;;20.40;90.20;;;;;;6197271;23;20013;-82
2022/05/23 20:15:32;;;;;;;4.43;1.42;;;20.40;90.30;;;;;;6171789;23;20008;-80
2022/05/23 20:18:07;;;;;;;5.03;1.30;;;20.30;90.40;;;;;;6223720;23;20223;-80
2022/05/23 20:20:40;;;;;;;5.43;1.50;;;20.20;90.60;;;;;;6196862;23;20009;-83
2022/05/23 20:23:07;;;;;;;5.55;1.42;;;20.20;90.80;;;;;;6223710;23;20067;-79
2022/05/23 20:25:37;;;;;;;4.53;1.63;;;20.10;90.90;;;;;;6223143;23;20001;-79
2022/05/23 20:28:05;;;;;;;4.90;1.38;;;20.20;90.90;;;;;;6224076;23;20001;-79
2022/05/23 20:30:35;;;;;;;4.38;1.52;;;20.20;90.90;;;;;;6222734;23;20087;-79
2022/05/23 20:33:01;;;;;;;6.35;1.77;;;20.20;91.00;;;;;;6172520;23;20019;-80
2022/05/23 20:35:27;;;;;;;5.40;1.30;;;20.10;91.00;;;;;;6223510;23;19997;-80
2022/05/23 20:37:53;;;;;;;4.22;1.30;;;20.20;90.90;;;;;;6195438;23;20008;-79
2022/05/23 20:40:19;;;;;;;4.85;1.90;;;20.20;91.20;;;;;;6171619;23;20305;-79
2022/05/23 20:42:46;;;;;;;5.90;1.60;;;20.20;91.20;;;;;;6222237;23;20052;-80
2022/05/23 20:45:25;;;;;;;3.33;1.30;;;20.20;91.20;;;;;;6223821;23;20329;-80
2022/05/23 20:47:51;;;;;;;4.88;1.58;;;20.20;91.30;;;;;;6195857;23;20027;-82
2022/05/23 20:50:32;;;;;;;3.15;1.50;;;20.10;91.40;;;;;;6196450;23;20060;-82